Date,TemperatureHighF,TemperatureAvgF,TemperatureLowF,DewpointHighF,DewpointAvgF,DewpointLowF,HumidityHigh,HumidityAvg,HumidityLow,PressureMaxIn,PressureMinIn,WindSpeedMaxMPH,WindSpeedAvgMPH,GustSpeedMaxMPH,PrecipitationSumIn
2013-1-1,80.8,67.6,57.9,64.0,60.4,56.0,96,80,52,30.18,30.02,9,1,16,0.00
2013-1-2,78.5,67.4,60.3,70.0,64.3,59.0,98,90,71,30.07,29.97,8,1,14,0.00
2013-1-3,81.7,69.7,60.4,71.0,65.2,60.0,98,87,54,30.11,30.00,8,1,15,0.01
2013-1-4,72.9,67.7,63.3,69.0,65.6,62.0,97,93,86,30.23,30.09,8,3,11,0.18
2013-1-5,80.9,68.4,61.5,68.0,63.9,60.0,97,86,64,30.24,30.13,11,3,13,0.00
2013-1-6,82.8,71.1,64.5,72.0,67.7,64.0,98,89,68,30.17,30.03,8,2,11,0.00
2013-1-7,75.7,69.4,66.0,69.0,66.8,64.0,96,91,76,30.15,30.06,9,3,14,0.24
2013-1-8,86.6,72.9,63.7,73.0,67.5,63.0,98,85,55,30.18,30.07,8,2,11,0.00
2013-1-9,88.1,76.0,69.1,72.0,68.7,66.0,97,80,49,30.24,30.13,5,1,11,0.00
2013-1-10,86.7,74.3,66.3,70.0,65.6,62.0,96,76,48,30.25,30.15,5,1,14,0.00
2013-1-11,86.6,72.3,62.9,70.0,64.6,62.0,97,79,47,30.24,30.10,5,1,10,0.00
2013-1-12,86.0,73.2,66.1,71.0,66.6,64.0,95,81,54,30.16,30.04,4,1,9,0.00
2013-1-13,86.0,71.6,63.6,69.0,65.5,62.0,96,82,54,30.11,30.03,6,1,10,0.00
2013-1-14,84.6,70.3,62.0,67.0,63.3,60.0,95,80,51,30.16,30.08,8,1,12,0.00
2013-1-15,84.5,70.7,61.2,69.0,63.7,60.0,97,80,53,30.12,30.03,9,1,10,0.00
2013-1-16,82.1,71.2,61.5,69.0,64.5,60.0,97,81,51,30.09,29.98,7,1,12,0.00
2013-1-17,78.7,67.1,60.2,70.0,62.3,51.0,97,85,69,30.11,29.98,18,5,22,0.00
2013-1-18,67.4,58.2,45.1,57.0,49.6,38.0,92,73,61,30.28,30.11,12,5,16,0.00
2013-1-19,75.1,65.6,58.7,65.0,61.5,57.0,95,87,68,30.21,30.08,9,3,15,0.00
2013-1-20,77.2,68.9,64.0,68.0,64.4,63.0,96,86,64,30.14,30.00,5,2,9,0.00
2013-1-21,73.8,66.7,62.5,67.0,63.4,60.0,95,89,78,30.07,29.98,11,3,16,0.00
2013-1-22,69.2,62.4,57.4,59.0,52.2,43.0,90,71,51,30.23,30.02,11,4,15,0.00
2013-1-23,73.4,60.8,53.5,52.0,45.3,39.0,77,58,32,30.31,30.21,10,4,14,0.00
2013-1-24,73.2,60.7,50.7,54.0,47.4,39.0,91,65,29,30.30,30.20,8,2,11,0.00
2013-1-25,78.4,62.1,50.2,56.0,52.2,48.0,95,73,43,30.28,30.16,6,1,8,0.00
2013-1-26,76.6,63.2,52.6,55.0,51.2,47.0,91,69,36,30.25,30.14,8,2,10,0.00
2013-1-27,81.4,66.8,55.1,61.0,56.1,52.0,93,71,42,30.26,30.17,10,2,12,0.00
2013-1-28,85.7,71.8,62.8,65.0,61.7,59.0,89,72,48,30.28,30.17,5,1,12,0.00
2013-1-29,85.2,71.5,62.3,69.0,65.0,61.0,96,81,51,30.21,30.07,6,1,11,0.00
2013-1-30,83.2,72.2,63.7,68.0,65.5,62.0,96,81,56,30.08,29.94,12,3,19,0.00
2013-1-31,72.6,62.8,50.5,69.0,53.7,36.0,95,75,44,30.20,29.91,15,4,19,0.06
2013-2-1,68.9,56.2,45.9,45.0,38.5,32.0,77,54,33,30.30,30.20,14,4,18,0.00
2013-2-2,77.6,60.4,48.3,55.0,46.0,38.0,90,61,37,30.26,30.10,9,2,13,0.00
2013-2-3,71.3,60.1,49.8,56.0,45.2,32.0,90,62,24,30.20,30.06,8,3,15,0.00
2013-2-4,73.3,59.0,45.7,53.0,45.3,35.0,96,67,26,30.14,30.01,7,1,9,0.00
2013-2-5,78.5,64.2,49.4,61.0,53.3,43.0,90,70,45,30.07,29.98,7,1,10,0.00
2013-2-6,82.7,68.8,56.9,65.0,60.5,54.0,92,76,50,30.10,30.00,7,1,11,0.00
2013-2-7,81.6,70.9,61.2,66.0,63.6,60.0,96,79,55,30.05,29.91,10,2,17,0.00
2013-2-8,80.4,71.5,62.1,69.0,63.3,54.0,95,77,42,30.05,29.88,12,5,16,0.00
2013-2-9,82.1,67.1,56.6,64.0,59.2,55.0,97,78,48,30.15,30.03,10,3,16,0.00
2013-2-10,82.4,68.0,61.4,64.0,61.1,58.0,90,79,53,30.20,30.11,4,1,10,0.00
2013-2-11,83.2,68.8,61.1,67.0,62.8,59.0,95,82,58,30.18,30.06,9,2,12,0.00
2013-2-12,81.6,78.2,69.2,71.0,69.5,67.0,93,75,67,30.08,29.95,14,5,17,0.00
2013-2-13,81.6,74.3,68.4,74.0,70.3,67.0,97,88,75,29.98,29.93,15,4,17,0.00
2013-2-15,64.5,62.9,62.2,62.0,61.2,61.0,95,94,90,29.96,29.93,0,0,0,0.01
2013-2-16,67.1,60.8,55.7,62.0,52.6,43.0,95,75,58,30.08,29.90,18,5,28,0.01
2013-2-17,58.2,50.0,42.7,44.0,29.7,22.0,64,47,29,30.31,30.09,15,5,22,0.00
2013-2-18,74.1,55.6,40.8,51.0,40.4,26.0,84,58,40,30.32,30.19,9,2,14,0.00
2013-2-19,77.9,62.6,52.9,65.0,57.4,50.0,95,84,59,30.19,30.07,6,1,10,0.00
2013-2-20,84.4,68.6,57.2,65.0,59.6,56.0,98,76,39,30.09,29.97,7,1,10,0.00
2013-2-21,83.3,70.6,61.0,69.0,64.2,60.0,97,82,56,30.07,29.98,8,2,12,0.00
2013-2-22,85.3,72.2,62.7,72.0,66.8,62.0,97,84,58,30.07,29.97,9,2,15,0.00
2013-2-23,84.3,74.4,68.0,73.0,70.2,67.0,97,87,65,30.01,29.90,15,3,20,0.00
2013-2-24,83.1,74.1,68.1,73.0,70.1,67.0,97,88,67,29.98,29.88,9,2,14,0.01
2013-2-25,84.2,74.0,65.6,73.0,69.1,65.0,98,85,65,29.91,29.78,11,2,16,0.01
2013-2-26,83.9,75.0,67.4,74.0,70.6,65.0,95,86,71,29.88,29.74,17,4,27,0.00
2013-2-27,76.4,67.6,64.2,65.0,62.9,58.0,97,85,64,29.97,29.85,6,2,11,0.01
2013-2-28,71.3,64.2,59.6,60.0,56.4,54.0,88,77,55,30.01,29.90,11,3,16,0.00
2013-3-1,64.4,60.9,56.9,59.0,50.8,42.0,88,70,57,30.00,29.91,9,3,13,0.00
2013-3-2,59.1,55.7,52.4,47.0,43.4,41.0,77,64,53,30.05,29.97,12,4,19,0.00
2013-3-3,57.7,51.4,42.6,48.0,43.3,35.0,92,75,58,30.15,29.97,18,4,22,0.00
2013-3-4,66.6,52.1,39.3,48.0,41.3,35.0,93,69,35,30.22,30.10,9,2,13,0.00
2013-3-5,73.0,59.1,43.6,59.0,52.3,42.0,95,80,57,30.16,30.07,11,2,17,0.00
2013-3-6,68.9,61.7,52.8,64.0,51.9,42.0,95,72,44,30.12,29.99,16,5,25,0.00
2013-3-7,67.4,54.6,45.5,49.0,41.1,35.0,81,62,36,30.21,30.09,11,4,16,0.00
2013-3-8,75.8,59.2,45.5,53.0,46.8,40.0,91,67,29,30.20,30.09,7,2,13,0.00
2013-3-9,77.2,63.8,50.8,54.0,49.7,43.0,91,64,30,30.19,30.09,8,2,14,0.00
2013-3-10,83.4,67.8,55.5,61.0,55.6,52.0,89,68,38,30.14,30.01,7,2,14,0.00
2013-3-11,80.5,68.5,58.9,63.0,59.6,56.0,92,75,52,30.08,29.90,14,2,18,0.00
2013-3-12,75.7,66.4,58.6,69.0,62.6,55.0,93,88,77,30.02,29.88,10,4,22,0.00
2013-3-13,75.6,62.8,54.8,54.0,47.7,39.0,89,62,27,30.15,30.02,14,4,17,0.00
2013-3-14,71.3,59.4,51.4,51.0,41.5,28.0,83,57,20,30.23,30.11,12,4,20,0.00
2013-3-15,77.1,59.1,46.5,51.0,41.4,31.0,85,58,24,30.27,30.12,10,3,16,0.00
2013-3-16,76.1,61.5,49.1,55.0,49.4,38.0,95,69,28,30.18,30.07,8,1,15,0.00
2013-3-17,80.0,65.5,53.8,62.0,57.1,52.0,94,76,47,30.12,29.99,10,2,16,0.00
2013-3-18,80.6,68.4,61.4,70.0,63.8,58.0,95,86,64,30.03,29.92,14,2,14,0.01
2013-3-19,81.7,70.3,65.2,70.0,65.9,64.0,96,86,66,30.00,29.83,8,2,15,0.00
2013-3-20,78.6,67.1,61.2,67.0,62.7,60.0,97,87,61,29.99,29.80,16,2,20,0.01
2013-3-21,74.4,64.2,55.5,63.0,51.3,36.0,95,67,25,29.96,29.84,10,3,17,0.00
2013-3-22,81.0,66.3,52.2,70.0,57.0,41.0,92,72,57,29.97,29.86,9,2,14,0.00
2013-3-23,85.2,76.0,69.8,73.0,69.6,67.0,97,82,60,29.95,29.80,13,3,20,0.00
2013-3-24,81.0,75.3,69.3,74.0,71.4,67.0,96,88,78,29.85,29.68,21,6,26,0.00
2013-3-25,75.0,69.1,57.7,73.0,54.9,35.0,94,64,27,30.03,29.74,13,5,16,0.00
2013-3-26,61.8,55.9,50.0,47.0,40.7,35.0,76,58,43,30.23,30.02,17,6,23,0.00
2013-3-27,64.0,52.5,43.9,46.0,38.1,32.0,76,60,36,30.29,30.18,13,4,15,0.00
2013-3-28,73.1,56.9,43.3,50.0,40.1,28.0,87,59,19,30.29,30.15,13,3,13,0.00
2013-3-29,77.8,62.2,49.2,53.0,45.6,39.0,90,60,27,30.30,30.16,9,2,15,0.00
2013-3-30,80.5,65.4,52.6,57.0,53.4,48.0,93,68,40,30.24,30.11,8,1,14,0.00
2013-3-31,80.8,67.9,56.0,63.0,58.9,54.0,92,75,46,30.17,30.01,10,2,18,0.00
2013-4-1,81.5,71.6,63.1,70.0,65.6,61.0,97,83,58,30.04,29.96,14,3,17,0.00
2013-4-2,81.6,72.5,65.7,68.0,65.6,63.0,97,80,58,30.08,29.98,10,2,14,0.00
2013-4-3,90.5,75.3,65.3,71.0,66.9,63.0,93,77,44,30.05,29.92,11,2,17,0.00
2013-4-4,82.5,70.9,65.1,74.0,67.4,63.0,96,89,70,30.02,29.86,17,2,22,0.01
2013-4-5,72.5,68.3,62.6,68.0,63.0,57.0,96,83,61,30.01,29.80,14,5,18,0.00
2013-4-6,82.1,66.2,58.7,63.0,58.7,55.0,92,78,49,30.07,29.95,13,4,13,0.00
2013-4-7,88.4,72.8,60.5,65.0,61.8,58.0,95,71,37,30.11,30.01,10,2,14,0.00
2013-4-8,87.7,72.8,62.5,65.0,62.1,59.0,91,71,40,30.10,30.00,5,1,11,0.00
2013-4-9,90.5,73.8,62.9,69.0,63.7,61.0,94,73,38,30.12,30.03,9,1,13,0.00
2013-4-10,92.8,75.6,65.2,73.0,68.5,63.0,95,80,49,30.08,29.94,14,2,15,0.00
2013-4-11,89.4,78.2,69.9,74.0,71.2,69.0,96,81,55,29.98,29.83,8,2,17,0.00
2013-4-12,86.8,78.2,73.2,75.0,73.0,72.0,96,84,63,29.92,29.86,9,3,16,0.00
2013-4-13,88.0,79.3,71.9,74.0,70.4,68.0,92,75,58,29.96,29.83,9,2,15,0.01
2013-4-14,88.1,77.8,68.9,76.0,71.7,67.0,96,82,58,29.95,29.82,13,2,18,0.00
2013-4-15,91.9,78.2,65.9,76.0,69.7,63.0,92,76,52,30.05,29.91,9,2,17,0.25
2013-4-16,92.6,79.3,69.2,74.0,70.6,68.0,96,77,46,30.11,29.99,12,2,18,0.00
2013-4-17,89.8,77.8,68.9,71.0,68.0,65.0,94,74,47,30.10,29.98,11,3,17,0.00
2013-4-18,91.5,78.0,69.4,76.0,69.9,65.0,93,77,50,30.03,29.92,8,2,14,0.23
2013-4-19,87.9,77.9,69.8,77.0,71.9,68.0,96,83,63,30.00,29.92,13,2,18,0.12
2013-4-20,84.8,76.8,70.7,75.0,71.3,68.0,97,84,63,30.10,29.94,13,2,14,0.09
2013-4-21,89.8,73.9,64.2,73.0,67.8,63.0,95,82,54,30.09,29.95,10,3,15,0.25
2013-4-22,85.8,73.1,67.3,73.0,68.6,66.0,96,86,63,30.05,29.92,10,2,11,0.21
2013-4-23,85.9,74.5,66.0,70.0,65.6,63.0,95,76,49,30.07,29.96,11,5,16,0.00
2013-4-24,89.4,74.5,62.3,69.0,65.0,61.0,95,74,41,30.11,30.02,10,3,12,0.00
2013-4-25,87.7,76.1,65.2,70.0,64.0,58.0,94,69,37,30.18,30.06,8,2,12,0.00
2013-4-26,87.3,75.5,63.9,66.0,63.3,61.0,92,68,46,30.21,30.11,12,2,18,0.00
2013-4-27,88.1,75.9,66.0,67.0,63.8,60.0,93,68,46,30.19,30.04,10,2,18,0.00
2013-4-28,90.6,76.4,65.6,71.0,65.2,62.0,87,70,43,30.09,29.94,7,1,12,0.00
2013-4-29,87.5,75.1,64.9,72.0,66.5,62.0,90,76,57,30.00,29.90,8,1,16,0.00
2013-4-30,88.5,76.1,68.1,75.0,70.0,67.0,96,82,61,29.96,29.89,9,2,14,0.00
2013-5-1,81.4,71.4,68.4,75.0,69.1,65.0,96,92,77,29.98,29.82,14,1,22,0.65
2013-5-2,75.3,69.3,67.7,70.0,67.8,66.0,97,94,83,29.94,29.79,8,1,9,0.45
2013-5-3,82.7,73.1,64.6,72.0,67.9,64.0,98,84,66,29.83,29.68,12,3,16,0.00
2013-5-4,79.3,73.5,68.5,70.0,67.6,65.0,93,82,69,29.80,29.68,19,7,25,0.00
2013-5-5,77.9,71.4,66.1,68.0,59.3,51.0,90,68,41,29.94,29.78,16,6,19,0.00
2013-5-6,76.6,69.2,60.5,66.0,61.8,58.0,95,78,61,30.00,29.91,9,3,16,0.00
2013-5-7,77.8,68.4,58.6,64.0,60.5,57.0,94,77,58,30.05,29.97,13,3,19,0.00
2013-5-8,81.4,71.1,60.8,64.0,60.5,52.0,97,72,39,30.12,30.03,11,2,12,0.00
2013-5-9,89.9,73.6,61.1,66.0,61.1,51.0,95,69,27,30.13,30.05,7,1,11,0.00
2013-5-10,90.1,77.4,64.7,74.0,69.3,63.0,95,78,54,30.11,29.98,12,2,15,0.00
2013-5-11,87.8,78.6,69.3,76.0,72.4,68.0,96,82,56,30.04,29.97,12,2,17,0.00
2013-5-12,86.2,78.9,72.8,76.0,73.4,70.0,97,84,68,30.03,29.91,13,3,18,0.00
2013-5-13,84.1,77.0,71.0,72.0,68.0,53.0,95,75,53,30.09,29.98,11,3,14,0.00
2013-5-14,85.9,73.9,63.6,60.0,56.7,53.0,80,57,35,30.16,30.07,8,3,22,0.00
2013-5-15,88.6,73.7,62.3,64.0,60.0,58.0,88,64,39,30.16,30.05,9,2,12,0.00
2013-5-16,90.9,76.2,63.3,67.0,61.8,58.0,91,64,35,30.09,29.97,6,1,11,0.00
2013-5-17,89.2,77.5,66.5,69.0,65.0,61.0,92,68,39,30.06,29.99,10,2,13,0.00
2013-5-18,88.9,79.3,68.5,72.0,69.2,67.0,96,73,51,30.08,29.98,10,2,16,0.00
2013-5-19,90.7,77.6,71.2,74.0,70.4,68.0,93,80,54,30.07,29.95,9,1,13,0.03
2013-5-20,90.5,76.9,70.1,75.0,70.2,66.0,96,81,50,30.04,29.94,8,2,14,0.00
2013-5-21,93.1,75.8,67.8,74.0,69.2,66.0,95,81,48,29.99,29.87,11,1,13,0.04
2013-5-22,86.6,77.2,68.0,75.0,70.3,67.0,96,80,60,29.93,29.86,13,2,16,0.00
2013-5-23,86.6,78.9,70.3,73.0,70.8,68.0,96,78,57,30.00,29.89,9,3,16,0.00
2013-5-24,92.4,80.8,73.0,75.0,70.9,65.0,94,74,41,30.05,29.95,11,3,18,0.00
2013-5-25,91.9,79.5,68.5,74.0,67.9,65.0,93,70,44,30.13,30.02,10,3,17,0.00
2013-5-26,88.4,77.1,66.2,67.0,64.8,58.0,91,68,36,30.16,30.06,10,3,15,0.00
2013-5-27,90.3,77.9,67.7,73.0,67.4,64.0,88,71,52,30.14,30.00,12,3,17,0.00
2013-5-28,88.8,78.0,72.5,76.0,71.7,70.0,92,81,58,30.09,29.99,7,2,15,0.05
2013-5-29,84.7,76.1,70.9,74.0,71.0,69.0,95,85,66,30.07,29.98,8,2,14,0.46
2013-5-30,90.1,78.1,71.1,76.0,71.8,69.0,93,82,60,30.03,29.94,11,3,18,0.03
2013-5-31,87.1,77.9,72.2,77.0,72.9,70.0,95,85,66,30.02,29.97,10,2,14,0.10
2013-6-1,91.9,78.7,72.9,77.0,73.3,71.0,96,84,59,30.01,29.92,9,2,13,0.00
2013-6-2,89.9,79.7,71.6,77.0,73.5,70.0,96,82,59,29.98,29.89,15,2,17,0.00
2013-6-3,85.3,78.4,73.7,76.0,73.5,72.0,95,85,70,29.99,29.89,11,2,12,0.01
2013-6-4,81.3,76.5,71.7,76.0,73.4,70.0,95,90,83,30.01,29.93,7,1,13,0.11
2013-6-5,78.8,76.7,75.3,76.0,74.7,73.0,96,93,89,29.99,29.84,5,1,10,0.22
2013-6-6,81.2,76.2,72.3,78.0,73.8,71.0,96,92,82,29.85,29.73,17,4,21,1.47
2013-6-7,83.9,78.3,74.6,77.0,74.2,71.0,96,87,75,29.96,29.80,7,2,14,0.02
2013-6-8,90.5,81.4,74.6,79.0,75.6,72.0,94,83,64,30.08,29.94,11,2,15,0.00
2013-6-9,96.3,82.6,74.8,78.0,75.0,73.0,96,79,50,30.08,29.98,7,1,12,0.00
2013-6-10,93.4,81.6,74.6,79.0,75.1,73.0,96,81,56,30.05,29.97,6,1,11,0.00
2013-6-11,92.6,80.3,70.2,78.0,74.1,68.0,96,83,57,30.07,29.95,9,1,18,1.47
2013-6-12,91.2,76.9,71.0,79.0,73.2,69.0,96,89,57,30.08,29.99,7,1,12,1.47
2013-6-13,88.7,77.4,70.1,79.0,73.2,69.0,98,88,64,30.03,29.91,7,1,14,0.07
2013-6-14,87.4,80.5,74.0,77.0,74.1,72.0,97,82,62,29.95,29.86,13,3,17,0.00
2013-6-15,89.7,81.8,74.7,78.0,75.0,73.0,96,81,67,30.03,29.92,9,2,13,0.02
2013-6-16,95.9,82.7,75.5,79.0,75.7,73.0,96,80,54,30.08,29.98,6,1,12,0.05
2013-6-17,96.2,83.6,75.0,79.0,75.3,72.0,96,78,49,30.06,29.96,7,1,14,0.00
2013-6-18,93.9,83.7,75.0,79.0,75.8,73.0,96,78,57,30.05,29.94,7,2,12,0.07
2013-6-19,91.3,80.8,74.2,78.0,74.2,69.0,96,81,62,30.03,29.95,7,1,17,0.02
2013-6-20,93.5,78.5,73.0,79.0,73.5,71.0,95,85,59,30.07,30.00,6,1,14,0.27
2013-6-21,92.5,79.0,72.0,78.0,72.7,69.0,95,82,56,30.08,30.01,13,1,17,0.01
2013-6-22,95.8,81.7,73.1,76.0,73.0,68.0,96,78,44,30.08,30.00,7,1,13,0.08
2013-6-23,95.4,80.4,74.3,77.0,73.7,71.0,95,81,51,30.10,30.03,5,1,13,0.00
2013-6-24,95.2,81.9,73.7,77.0,74.0,71.0,95,79,48,30.14,30.03,8,1,12,0.00
2013-6-25,93.6,81.6,74.2,77.0,72.9,68.0,94,76,46,30.11,29.98,10,1,16,0.00
2013-6-26,91.0,77.4,71.3,79.0,73.5,69.0,95,88,63,30.07,29.98,8,1,16,0.98
2013-6-27,92.3,77.9,71.5,81.0,73.5,70.0,97,87,59,30.03,29.93,12,1,19,0.27
2013-6-28,89.8,81.4,73.5,78.0,74.5,72.0,97,81,60,29.97,29.85,11,2,14,0.00
2013-6-29,90.2,82.5,75.5,78.0,75.2,74.0,95,79,61,29.89,29.81,10,2,14,0.00
2013-6-30,89.1,80.5,73.6,78.0,75.5,72.0,96,85,67,29.90,29.82,13,3,24,1.96
2013-7-1,74.5,73.8,73.5,73.0,72.5,72.0,96,96,95,29.92,29.88,7,1,14,0.59
2013-7-2,86.7,77.2,72.9,80.0,74.1,71.0,97,90,78,30.07,30.00,7,1,14,1.33
2013-7-3,93.1,77.5,73.2,79.0,73.9,71.0,97,89,59,30.10,30.02,6,1,12,0.65
2013-7-4,94.2,79.3,72.3,79.0,74.4,71.0,96,86,58,30.12,30.03,8,1,14,0.15
2013-7-5,92.5,79.2,73.9,79.0,74.4,71.0,95,86,61,30.10,30.01,9,1,17,0.22
2013-7-6,95.8,82.7,75.6,79.0,75.1,73.0,95,80,52,30.08,29.98,5,1,13,0.00
2013-7-7,95.8,83.3,75.6,78.0,75.2,73.0,94,78,51,30.09,29.98,5,1,14,0.01
2013-7-8,96.0,82.2,75.3,76.0,74.4,72.0,94,79,47,30.12,30.05,7,1,14,0.09
2013-7-9,87.3,79.3,73.8,78.0,73.9,72.0,95,84,65,30.12,30.03,9,2,13,0.06
2013-7-10,87.7,78.2,73.7,76.0,73.6,72.0,96,86,63,30.07,29.96,7,1,12,0.19
2013-7-11,88.6,79.6,73.8,78.0,74.5,73.0,97,85,64,30.01,29.91,7,1,11,0.12
2013-7-12,87.6,79.9,74.6,77.0,74.4,72.0,96,84,63,29.95,29.87,7,1,11,0.00
2013-7-13,87.7,77.4,73.3,78.0,73.6,72.0,97,88,68,29.97,29.89,6,1,14,0.25
2013-7-14,80.9,75.6,73.2,76.0,72.9,71.0,96,91,78,30.06,29.94,6,1,11,0.16
2013-7-15,89.3,77.8,71.9,77.0,72.8,71.0,95,85,61,30.07,29.99,7,1,13,0.07
2013-7-16,89.4,78.5,73.7,75.0,72.5,70.0,94,83,62,30.10,30.02,8,2,14,0.08
2013-7-17,88.9,78.7,74.1,76.0,73.2,71.0,96,84,65,30.10,30.01,8,2,11,0.14
2013-7-18,82.7,74.4,71.2,77.0,72.2,70.0,97,93,80,30.09,30.03,7,1,13,0.73
2013-7-19,93.9,78.3,70.5,80.0,74.1,70.0,97,88,58,30.11,30.01,6,1,14,0.24
2013-7-20,92.7,79.2,73.9,81.0,74.6,71.0,97,86,62,30.09,30.00,7,1,12,0.00
2013-7-21,90.9,81.0,74.4,81.0,75.9,72.0,96,85,66,30.12,30.02,7,1,12,0.06
2013-7-22,92.3,82.6,75.5,79.0,76.2,73.0,96,82,62,30.12,30.05,8,1,11,0.00
2013-7-23,91.1,82.4,76.5,78.0,76.1,75.0,96,82,62,30.09,29.96,7,2,13,0.00
2013-7-24,87.2,81.5,75.5,76.0,73.9,70.0,94,79,59,30.00,29.91,12,3,18,0.00
2013-7-25,87.0,82.4,78.2,78.0,75.4,73.0,87,79,71,30.00,29.90,14,4,17,0.00
2013-7-26,88.5,82.8,73.4,79.0,75.8,70.0,95,80,67,30.03,29.94,11,3,17,0.08
2013-7-27,90.1,82.6,76.0,79.0,76.3,74.0,96,82,64,29.98,29.90,10,2,15,0.46
2013-7-28,92.6,83.4,76.3,78.0,75.1,73.0,96,77,56,30.04,29.93,8,1,11,0.00
2013-7-29,95.6,81.0,75.2,79.0,74.5,72.0,94,82,50,30.12,30.00,7,1,14,0.02
2013-7-30,93.1,81.3,75.3,80.0,76.2,73.0,96,85,58,30.14,30.05,9,1,11,0.13
2013-7-31,94.5,82.4,76.3,79.0,75.9,73.0,95,82,58,30.10,29.98,9,1,17,0.01
2013-8-1,95.1,80.8,74.7,78.0,74.4,69.0,96,82,51,30.03,29.91,6,1,17,0.04
2013-8-2,89.9,79.8,73.6,78.0,74.8,71.0,97,85,56,30.03,29.91,17,1,28,0.67
2013-8-3,92.0,79.8,73.7,81.0,76.4,72.0,97,90,67,30.09,30.00,7,1,11,0.42
2013-8-4,90.0,82.5,76.5,79.0,77.2,75.0,97,85,68,30.08,29.99,8,2,14,0.00
2013-8-5,90.1,82.9,76.5,79.0,77.4,75.0,95,84,64,30.03,29.92,13,2,13,0.27
2013-8-6,91.7,81.1,76.8,80.0,76.7,74.0,97,87,62,29.96,29.88,9,1,10,0.57
2013-8-7,94.3,80.8,75.9,81.0,76.4,75.0,96,87,60,29.94,29.88,8,1,13,0.12
2013-8-8,97.5,81.7,75.9,79.0,76.1,74.0,97,85,51,29.99,29.90,5,1,11,0.24
2013-8-9,93.7,78.7,73.1,78.0,74.5,71.0,97,88,56,30.04,29.93,13,1,21,0.20
2013-8-10,96.9,84.5,74.3,80.0,75.1,73.0,95,76,50,30.08,29.99,6,1,10,0.00
2013-8-11,98.3,87.0,76.4,78.0,76.0,74.0,94,72,49,30.11,30.01,4,1,9,0.00
2013-8-12,94.9,84.1,75.8,76.0,73.5,68.0,95,73,43,30.10,29.98,14,2,15,0.00
2013-8-20,83.7,81.2,79.0,76.0,75.8,75.0,89,84,77,30.03,29.96,3,1,7,0.25
2013-8-21,95.5,82.3,76.9,80.0,76.8,75.0,95,84,58,30.05,29.95,9,2,15,0.19
2013-8-22,97.9,81.5,74.6,80.0,76.1,73.0,97,85,51,30.03,29.92,9,1,15,1.01
2013-8-23,93.2,80.5,74.7,80.0,75.7,73.0,98,86,59,29.99,29.92,4,1,10,0.01
2013-8-24,94.8,81.1,74.0,80.0,75.2,71.0,96,84,53,30.12,29.95,9,1,16,1.32
2013-8-25,92.9,80.1,74.8,79.0,75.5,73.0,96,87,53,30.12,30.00,9,2,11,0.05
2013-8-26,90.7,78.3,72.6,78.0,74.6,70.0,96,89,59,30.09,29.96,7,2,14,0.93
2013-8-27,92.1,77.5,71.8,77.0,73.6,71.0,98,89,57,30.03,29.95,8,1,21,0.08
2013-8-28,92.7,78.1,73.5,77.0,73.6,71.0,96,87,52,30.02,29.95,8,1,15,0.27
2013-8-29,90.0,79.7,73.3,77.0,74.1,72.0,97,84,59,30.01,29.90,8,1,11,0.08
2013-8-30,93.1,79.8,74.3,78.0,75.1,70.0,97,86,56,29.98,29.88,15,1,19,0.63
2013-8-31,89.9,81.1,74.5,78.0,74.4,72.0,96,81,57,29.96,29.88,8,2,13,0.00
2013-9-1,91.8,80.3,75.0,79.0,74.4,73.0,95,83,59,29.98,29.91,9,1,14,0.00
2013-9-2,89.3,78.1,74.7,79.0,74.6,72.0,96,89,65,30.00,29.92,6,0,11,0.07
2013-9-3,88.3,79.9,73.1,78.0,74.9,72.0,97,85,68,30.01,29.91,7,1,12,0.01
2013-9-4,94.7,80.1,76.0,81.0,75.7,72.0,94,87,59,30.04,29.93,4,1,12,0.01
2013-9-5,97.8,83.1,76.1,80.0,76.1,74.0,97,81,47,30.06,29.96,7,1,13,0.00
2013-9-6,95.3,84.4,73.6,80.0,76.5,69.0,94,79,51,30.02,29.88,7,1,20,0.62
2013-9-11,90.7,82.8,75.8,78.0,75.7,74.0,94,80,65,30.02,29.95,12,2,15,0.00
2013-9-12,92.9,80.2,74.9,78.0,74.9,72.0,96,85,58,29.99,29.85,11,1,23,0.01
2013-9-13,88.4,80.0,73.0,77.0,73.8,72.0,97,82,61,29.89,29.79,7,1,10,0.00
2013-9-14,91.9,82.0,74.8,77.0,74.4,71.0,96,79,56,29.94,29.81,5,1,10,0.00
2013-9-15,95.4,79.4,75.3,79.0,74.7,71.0,96,86,56,30.04,29.91,8,1,19,0.02
2013-9-16,89.0,77.1,73.5,79.0,74.3,72.0,96,91,69,30.02,29.93,9,2,22,0.33
2013-9-17,87.0,76.3,73.4,78.0,74.1,72.0,98,93,69,30.00,29.90,7,2,18,1.86
2013-9-18,89.8,77.1,72.9,78.0,74.0,71.0,97,90,66,29.99,29.91,9,2,17,0.44
2013-9-19,89.2,78.7,72.5,78.0,74.4,72.0,97,87,64,30.00,29.92,10,2,13,0.01
2013-9-20,89.8,80.4,73.4,74.0,71.8,69.0,96,77,53,29.99,29.87,11,2,16,0.00
2013-9-21,89.8,79.8,71.9,76.0,72.5,70.0,95,80,57,29.91,29.75,6,1,11,0.00
2013-9-22,89.3,81.0,73.8,77.0,75.3,73.0,96,83,61,29.84,29.75,10,2,13,0.00
2013-9-23,82.7,77.9,74.9,79.0,76.4,74.0,97,95,83,29.94,29.82,10,1,15,1.39
2013-9-24,85.8,76.0,71.5,81.0,74.4,70.0,98,95,80,29.94,29.87,12,2,18,1.27
2013-9-25,80.4,75.5,73.0,77.0,73.8,71.0,98,94,85,29.91,29.79,10,1,13,0.20
2013-9-26,86.1,80.8,74.8,81.0,77.2,74.0,98,89,74,29.86,29.79,13,3,22,0.17
2013-9-27,85.7,78.7,73.1,74.0,71.9,67.0,95,80,57,29.92,29.82,10,2,14,0.00
2013-9-28,88.6,79.1,72.0,75.0,72.0,70.0,94,80,55,29.95,29.86,10,4,15,0.00
2013-9-29,89.8,79.6,71.6,74.0,71.2,68.0,94,77,55,29.95,29.84,9,2,12,0.00
2013-9-30,92.8,80.3,71.6,76.0,72.3,70.0,96,78,49,29.98,29.86,6,1,11,0.00
2013-10-1,93.0,81.0,72.9,76.0,72.7,68.0,96,78,47,30.01,29.91,11,2,12,0.00
2013-10-2,91.4,80.3,74.5,76.0,73.4,71.0,91,80,58,30.02,29.91,10,2,15,0.00
2013-10-3,93.4,78.6,74.5,78.0,74.0,72.0,96,87,57,30.02,29.92,8,1,11,0.54
2013-10-4,91.9,80.2,73.1,76.0,72.5,67.0,97,79,53,30.04,29.95,7,1,13,0.00
2013-10-5,93.5,80.8,72.6,73.0,71.3,67.0,93,74,44,30.02,29.90,6,1,9,0.00
2013-10-6,89.0,79.5,72.0,76.0,73.0,71.0,96,81,62,29.95,29.85,6,1,10,0.00
2013-10-7,87.0,79.8,74.6,78.0,75.3,72.0,95,86,74,29.87,29.78,15,3,22,0.00
2013-10-8,84.7,78.3,73.4,75.0,72.2,69.0,95,82,67,29.92,29.82,8,2,14,0.00
2013-10-9,83.7,77.4,73.3,74.0,72.0,70.0,94,84,69,29.99,29.89,9,2,11,0.00
2013-10-10,87.0,77.0,68.9,72.0,69.5,67.0,95,79,56,30.02,29.92,12,2,13,0.00
2013-10-11,88.3,77.3,68.1,71.0,67.4,62.0,96,74,44,30.01,29.91,8,1,11,0.00
2013-10-12,85.1,76.8,68.8,71.0,68.5,66.0,95,77,54,30.02,29.94,8,1,10,0.00
2013-10-13,86.5,77.6,70.1,72.0,67.1,64.0,93,71,50,30.04,29.94,8,2,11,0.00
2013-10-14,86.6,77.0,68.7,70.0,66.8,64.0,93,73,49,30.01,29.89,7,2,12,0.00
2013-10-15,86.0,77.1,69.1,71.0,68.1,65.0,94,75,50,29.96,29.85,11,2,11,0.00
2013-10-16,84.9,76.6,69.5,73.0,70.1,68.0,96,81,57,29.94,29.86,7,1,11,0.00
2013-10-17,88.2,78.1,70.1,73.0,71.0,69.0,96,80,58,29.95,29.86,5,1,12,0.00
2013-10-18,93.0,79.7,71.6,75.0,71.5,69.0,97,78,49,29.96,29.86,5,0,8,0.00
2013-10-21,85.9,81.0,76.2,77.0,75.0,74.0,92,82,73,29.94,29.88,5,1,10,0.00
2013-10-22,76.2,74.7,73.5,74.0,73.3,72.0,97,95,93,29.95,29.88,0,0,2,0.00
2013-10-23,80.3,75.5,70.5,68.0,63.4,57.0,75,66,57,29.96,29.85,8,2,13,0.03
2013-10-24,75.0,70.0,66.5,64.0,59.7,54.0,83,70,64,30.11,29.95,10,5,15,0.00
2013-10-25,79.5,70.2,63.2,65.0,61.6,59.0,87,75,57,30.18,30.09,10,4,17,0.00
2013-10-26,82.5,71.4,62.7,65.0,60.6,56.0,88,71,44,30.16,30.04,8,4,12,0.00
2013-10-27,74.4,70.9,68.5,63.0,61.2,59.0,82,72,60,30.08,30.03,3,1,5,0.00
2013-10-28,84.5,72.9,62.9,67.0,63.5,61.0,93,74,50,30.14,30.05,9,2,12,0.00
2013-10-29,86.8,74.8,66.1,69.0,66.0,63.0,90,75,53,30.18,30.06,12,4,17,0.00
2013-10-30,87.5,75.0,67.6,69.0,65.9,64.0,93,75,47,30.17,30.04,9,2,15,0.00
2013-10-31,91.0,76.6,66.7,72.0,68.6,65.0,94,78,46,30.09,29.95,7,1,10,0.00
2013-11-1,85.0,75.7,68.0,75.0,70.9,67.0,98,86,64,29.99,29.87,11,1,15,0.00
2013-11-2,82.2,73.8,69.9,76.0,69.6,62.0,98,87,72,29.94,29.81,8,2,15,0.03
2013-11-3,78.4,70.1,63.4,63.0,55.3,49.0,88,62,36,30.04,29.93,14,5,21,0.00
2013-11-4,81.1,70.4,60.3,65.0,60.0,53.0,82,70,52,30.08,30.01,15,6,23,0.00
2013-11-5,84.8,74.8,66.9,71.0,67.8,64.0,91,79,61,30.06,29.99,14,6,19,0.00
2013-11-6,88.6,77.3,69.9,72.0,68.8,67.0,90,76,56,30.05,29.95,11,3,16,0.00
2013-11-7,81.8,73.8,67.3,72.0,68.1,66.0,96,83,65,30.02,29.92,8,2,11,0.00
2013-11-8,82.1,73.5,66.7,71.0,67.1,65.0,95,81,66,30.05,29.95,14,5,18,0.00
2013-11-9,80.0,73.2,68.0,72.0,68.5,65.0,92,85,75,30.10,30.02,11,4,16,0.00
2013-11-10,85.7,76.1,70.0,73.0,68.8,67.0,93,79,58,30.12,30.01,9,4,14,0.00
2013-11-11,87.6,75.8,67.7,70.0,67.3,65.0,93,76,49,30.11,30.01,12,3,13,0.00
2013-11-12,83.4,74.7,68.1,70.0,67.3,66.0,95,78,57,30.08,29.95,8,2,12,0.00
2013-11-13,71.5,67.0,61.4,68.0,58.3,51.0,91,74,64,30.21,30.00,24,9,26,0.00
2013-11-14,79.0,67.1,58.0,61.0,56.7,51.0,83,70,50,30.22,30.11,12,4,17,0.00
2013-11-15,82.8,72.3,64.3,70.0,64.4,58.0,84,77,64,30.13,29.99,8,2,14,0.00
2013-11-16,80.1,73.3,69.4,73.0,68.0,65.0,95,84,71,30.07,29.99,8,2,13,0.09
2013-11-17,89.9,75.9,68.8,73.0,69.5,66.0,96,82,52,30.05,29.96,6,1,10,0.00
2013-11-18,84.3,74.9,67.9,72.0,69.7,67.0,97,85,63,30.01,29.90,4,1,8,0.00
2013-11-19,82.8,75.4,69.3,74.0,70.9,68.0,97,86,69,29.93,29.84,6,1,12,0.00
2013-11-20,85.5,74.9,67.2,72.0,69.3,66.0,97,84,59,30.05,29.92,6,2,9,0.00
2013-11-21,87.0,76.5,71.5,74.0,71.8,70.0,96,86,64,30.13,30.03,7,2,10,0.18
2013-11-22,83.8,75.4,70.1,72.0,69.4,67.0,96,83,60,30.13,30.04,10,3,16,0.01
2013-11-23,83.6,74.5,66.8,72.0,68.2,64.0,92,81,64,30.08,29.95,8,2,12,0.00
2013-11-24,77.1,69.8,64.4,69.0,65.2,61.0,95,86,70,30.14,29.98,22,5,23,0.00
2013-11-25,78.3,70.1,64.3,66.0,63.0,60.0,88,79,63,30.16,30.01,11,4,18,0.01
2013-11-26,85.3,75.6,69.0,74.0,71.0,66.0,96,86,65,30.00,29.79,13,2,21,0.35
2013-11-27,73.2,68.3,53.4,72.0,61.8,48.0,96,80,60,30.16,29.76,13,5,23,0.07
2013-11-28,68.5,55.1,41.4,55.0,47.5,38.0,87,76,58,30.28,30.14,10,4,15,0.00
2013-11-29,75.5,64.0,53.9,61.0,56.7,51.0,92,78,60,30.28,30.17,14,7,24,0.00
2013-11-30,76.3,65.4,56.9,66.0,61.0,54.0,96,86,69,30.24,30.12,11,5,24,0.00
2013-12-1,74.6,65.7,61.1,67.0,63.3,60.0,98,92,78,30.13,29.96,9,3,12,0.00
2013-12-2,73.5,65.9,60.8,66.0,62.8,60.0,97,90,69,29.95,29.82,7,1,9,0.00
2013-12-3,78.7,69.6,63.1,67.0,63.7,61.0,95,82,64,29.97,29.88,11,1,14,0.00
2013-12-4,83.9,72.2,63.3,71.0,66.1,62.0,97,82,58,30.06,29.96,7,1,12,0.01
2013-12-5,86.1,72.8,64.3,71.0,67.4,63.0,97,84,55,30.14,30.04,5,1,11,0.01
2013-12-6,87.2,73.9,66.6,74.0,69.2,66.0,98,86,57,30.16,30.05,7,1,10,0.00
2013-12-7,86.3,73.4,63.8,71.0,66.8,63.0,98,81,56,30.20,30.10,5,0,9,0.01
2013-12-8,88.2,74.4,67.0,72.0,67.6,65.0,96,81,51,30.18,30.06,5,1,11,0.01
2013-12-9,88.4,74.2,67.4,73.0,68.0,65.0,97,83,52,30.15,30.05,6,1,12,0.00
2013-12-10,84.5,73.7,65.6,73.0,68.2,64.0,97,84,57,30.14,30.06,8,1,12,0.00
2013-12-11,83.9,73.5,66.3,72.0,68.3,65.0,97,85,62,30.20,30.10,9,2,15,0.01
2013-12-12,71.2,67.0,57.9,68.0,61.6,42.0,97,84,46,30.23,30.13,12,4,16,0.00
2013-12-13,78.6,65.7,54.0,64.0,57.5,46.0,89,75,60,30.21,30.07,11,3,15,0.00
2013-12-14,86.9,73.6,63.8,72.0,68.1,62.0,97,84,58,30.07,29.94,9,2,15,0.00
2013-12-15,76.0,72.5,66.2,74.0,69.9,61.0,97,91,76,30.08,29.91,7,2,14,0.20
2013-12-16,68.7,62.7,55.6,60.0,55.8,52.0,89,78,61,30.17,30.06,9,3,12,0.00
2013-12-17,77.4,62.0,49.6,63.0,54.9,46.0,90,78,58,30.20,30.09,9,2,13,0.00
2013-12-18,72.7,61.8,53.5,56.0,48.6,42.0,92,65,34,30.27,30.16,11,2,14,0.00
2013-12-19,80.0,64.8,53.1,62.0,55.0,48.0,88,72,49,30.23,30.11,8,2,11,0.00
2013-12-20,85.6,71.8,61.1,71.0,64.7,58.0,94,80,58,30.15,30.05,5,1,11,0.00
2013-12-21,87.6,75.2,67.0,73.0,68.9,65.0,96,82,57,30.11,30.00,7,1,13,0.00
2013-12-22,86.0,74.5,68.2,73.0,69.7,67.0,97,86,63,30.13,30.04,8,1,15,0.01
2013-12-23,83.8,74.5,68.5,74.0,70.6,67.0,98,88,69,30.15,30.08,10,2,15,0.01
2013-12-24,71.0,66.9,56.4,70.0,62.2,44.0,97,85,54,30.19,30.10,18,4,18,0.01
2013-12-25,76.9,65.7,55.5,66.0,57.9,47.0,83,76,65,30.17,30.07,11,5,17,0.00
2013-12-26,82.2,70.5,62.6,70.0,64.2,58.0,90,81,63,30.16,30.03,8,2,13,0.00
2013-12-27,81.4,71.1,64.1,70.0,66.0,62.0,95,84,67,30.19,30.06,11,5,15,0.00
2013-12-28,83.2,72.8,65.8,73.0,68.4,64.0,95,86,68,30.16,29.99,6,2,14,0.00
2013-12-29,78.8,73.4,68.5,75.0,71.0,65.0,97,92,85,30.00,29.90,12,2,24,0.17
2013-12-30,73.3,67.2,63.1,65.0,62.5,61.0,92,85,72,30.15,29.99,8,3,10,0.00
2013-12-31,72.6,66.3,62.0,61.0,56.9,47.0,92,73,44,30.24,30.10,12,5,21,0.00
2014-1-1,81.6,69.8,61.7,73.0,65.8,57.0,97,87,70,30.18,30.02,8,2,11,0.17
2014-1-2,80.2,71.9,65.3,73.0,69.2,65.0,98,91,75,30.02,29.87,13,3,19,0.17